sensor_id;sensor_type;location;lat;lon;timestamp;pressure;altitude;pressure_sealevel;temperature;humidity
70833;BME280;58452;59.418;17.962;2023-02-14T00:01:53;102808.34;;;4.04;70.30
70833;BME280;58452;59.418;17.962;2023-02-14T00:04:19;102821.00;;;4.08;71.22
70833;BME280;58452;59.418;17.962;2023-02-14T00:06:44;102830.31;;;4.11;71.27
70833;BME280;58452;59.418;17.962;2023-02-14T00:09:15;102819.03;;;4.16;71.03
70833;BME280;58452;59.418;17.962;2023-02-14T00:11:41;102817.75;;;4.03;71.04
70833;BME280;58452;59.418;17.962;2023-02-14T00:14:07;102821.44;;;3.94;71.50
70833;BME280;58452;59.418;17.962;2023-02-14T00:16:51;102824.19;;;3.88;71.39
70833;BME280;58452;59.418;17.962;2023-02-14T00:19:18;102830.03;;;3.92;71.91
70833;BME280;58452;59.418;17.962;2023-02-14T00:21:44;102828.47;;;3.88;71.61
70833;BME280;58452;59.418;17.962;2023-02-14T00:24:12;102825.84;;;3.89;71.59
70833;BME280;58452;59.418;17.962;2023-02-14T00:26:38;102832.81;;;3.84;71.39
70833;BME280;58452;59.418;17.962;2023-02-14T00:29:05;102831.16;;;3.83;71.96
70833;BME280;58452;59.418;17.962;2023-02-14T00:31:31;102833.09;;;3.75;71.94
70833;BME280;58452;59.418;17.962;2023-02-14T00:33:57;102833.28;;;3.69;72.42
70833;BME280;58452;59.418;17.962;2023-02-14T00:36:22;102836.63;;;3.71;71.96
70833;BME280;58452;59.418;17.962;2023-02-14T00:38:50;102826.22;;;3.77;72.06
70833;BME280;58452;59.418;17.962;2023-02-14T00:41:16;102837.94;;;3.84;72.29
70833;BME280;58452;59.418;17.962;2023-02-14T00:43:48;102841.97;;;3.91;71.88
70833;BME280;58452;59.418;17.962;2023-02-14T00:46:15;102839.59;;;3.85;72.05
70833;BME280;58452;59.418;17.962;2023-02-14T00:48:41;102845.69;;;3.81;72.45
70833;BME280;58452;59.418;17.962;2023-02-14T00:51:07;102836.16;;;3.86;71.52
70833;BME280;58452;59.418;17.962;2023-02-14T00:53:33;102831.66;;;3.94;71.96
70833;BME280;58452;59.418;17.962;2023-02-14T00:55:59;102839.66;;;3.84;71.92
70833;BME280;58452;59.418;17.962;2023-02-14T00:58:24;102842.94;;;3.87;71.81
70833;BME280;58452;59.418;17.962;2023-02-14T01:00:51;102836.34;;;3.80;72.75
70833;BME280;58452;59.418;17.962;2023-02-14T01:03:16;102838.41;;;3.69;72.48
70833;BME280;58452;59.418;17.962;2023-02-14T01:05:42;102829.13;;;3.67;72.91
70833;BME280;58452;59.418;17.962;2023-02-14T01:08:07;102839.31;;;3.67;72.84
70833;BME280;58452;59.418;17.962;2023-02-14T01:10:35;102843.41;;;3.72;72.88
70833;BME280;58452;59.418;17.962;2023-02-14T01:13:01;102846.50;;;3.82;72.82
70833;BME280;58452;59.418;17.962;2023-02-14T01:15:27;102843.47;;;3.97;72.17
70833;BME280;58452;59.418;17.962;2023-02-14T01:17:53;102845.66;;;4.09;71.32
70833;BME280;58452;59.418;17.962;2023-02-14T01:20:18;102851.97;;;3.98;71.66
70833;BME280;58452;59.418;17.962;2023-02-14T01:22:44;102844.81;;;4.09;71.17
70833;BME280;58452;59.418;17.962;2023-02-14T01:25:09;102838.84;;;3.82;71.48
70833;BME280;58452;59.418;17.962;2023-02-14T01:27:35;102841.91;;;3.65;72.99
70833;BME280;58452;59.418;17.962;2023-02-14T01:30:00;102845.53;;;3.58;73.27
70833;BME280;58452;59.418;17.962;2023-02-14T01:32:29;102834.88;;;3.73;72.59
70833;BME280;58452;59.418;17.962;2023-02-14T01:34:54;102847.94;;;3.90;72.65
70833;BME280;58452;59.418;17.962;2023-02-14T01:37:20;102844.19;;;4.02;71.63
70833;BME280;58452;59.418;17.962;2023-02-14T01:39:45;102854.81;;;4.16;71.57
70833;BME280;58452;59.418;17.962;2023-02-14T01:42:11;102855.44;;;4.23;70.93
70833;BME280;58452;59.418;17.962;2023-02-14T01:47:04;102859.28;;;3.53;72.42
70833;BME280;58452;59.418;17.962;2023-02-14T01:49:37;102862.78;;;3.50;72.23
70833;BME280;58452;59.418;17.962;2023-02-14T01:52:08;102867.63;;;3.59;72.23
70833;BME280;58452;59.418;17.962;2023-02-14T01:54:40;102865.41;;;3.76;71.17
70833;BME280;58452;59.418;17.962;2023-02-14T01:57:10;102874.78;;;3.76;71.40
70833;BME280;58452;59.418;17.962;2023-02-14T01:59:41;102874.50;;;3.57;72.32
70833;BME280;58452;59.418;17.962;2023-02-14T02:02:08;102877.44;;;3.43;72.40
70833;BME280;58452;59.418;17.962;2023-02-14T02:04:37;102873.94;;;3.48;73.08
70833;BME280;58452;59.418;17.962;2023-02-14T02:07:06;102879.13;;;3.44;73.18
70833;BME280;58452;59.418;17.962;2023-02-14T02:10:05;102875.28;;;3.59;72.97
70833;BME280;58452;59.418;17.962;2023-02-14T02:12:32;102879.78;;;3.51;72.42
70833;BME280;58452;59.418;17.962;2023-02-14T02:15:01;102876.47;;;3.48;72.41
70833;BME280;58452;59.418;17.962;2023-02-14T02:40:52;102889.59;;;3.34;72.60
70833;BME280;58452;59.418;17.962;2023-02-14T02:46:02;102890.31;;;3.39;72.37
70833;BME280;58452;59.418;17.962;2023-02-14T02:48:56;102890.91;;;3.49;72.73
70833;BME280;58452;59.418;17.962;2023-02-14T02:51:36;102902.31;;;3.37;72.62
70833;BME280;58452;59.418;17.962;2023-02-14T02:54:33;102896.09;;;3.45;72.10
70833;BME280;58452;59.418;17.962;2023-02-14T02:57:04;102894.25;;;3.51;71.64
70833;BME280;58452;59.418;17.962;2023-02-14T02:59:37;102894.56;;;3.40;72.47
70833;BME280;58452;59.418;17.962;2023-02-14T03:02:30;102895.69;;;3.30;72.32
70833;BME280;58452;59.418;17.962;2023-02-14T03:05:00;102898.19;;;3.01;73.41
70833;BME280;58452;59.418;17.962;2023-02-14T03:10:22;102902.88;;;3.16;73.98
70833;BME280;58452;59.418;17.962;2023-02-14T03:13:24;102900.84;;;3.28;73.30
70833;BME280;58452;59.418;17.962;2023-02-14T03:24:23;102909.34;;;3.29;73.13
70833;BME280;58452;59.418;17.962;2023-02-14T03:37:35;102914.28;;;3.03;72.79
70833;BME280;58452;59.418;17.962;2023-02-14T03:40:10;102918.22;;;2.82;73.83
70833;BME280;58452;59.418;17.962;2023-02-14T03:42:45;102919.56;;;2.97;73.31
70833;BME280;58452;59.418;17.962;2023-02-14T03:45:19;102923.63;;;3.04;73.18
70833;BME280;58452;59.418;17.962;2023-02-14T03:47:47;102923.09;;;2.91;73.70
70833;BME280;58452;59.418;17.962;2023-02-14T03:50:17;102925.75;;;2.86;73.77
70833;BME280;58452;59.418;17.962;2023-02-14T03:52:45;102917.97;;;2.92;73.74
70833;BME280;58452;59.418;17.962;2023-02-14T03:55:16;102911.06;;;2.62;74.52
70833;BME280;58452;59.418;17.962;2023-02-14T03:57:56;102920.91;;;2.76;74.48
70833;BME280;58452;59.418;17.962;2023-02-14T04:00:24;102919.94;;;2.81;74.79
70833;BME280;58452;59.418;17.962;2023-02-14T04:02:59;102930.72;;;2.92;74.84
70833;BME280;58452;59.418;17.962;2023-02-14T04:05:27;102919.50;;;2.98;74.48
70833;BME280;58452;59.418;17.962;2023-02-14T04:07:55;102922.16;;;2.93;74.59
70833;BME280;58452;59.418;17.962;2023-02-14T04:10:21;102918.56;;;2.68;75.91
70833;BME280;58452;59.418;17.962;2023-02-14T04:12:48;102925.22;;;2.74;75.98
70833;BME280;58452;59.418;17.962;2023-02-14T04:15:14;102919.84;;;2.86;75.84
70833;BME280;58452;59.418;17.962;2023-02-14T04:17:40;102923.75;;;2.97;75.46
70833;BME280;58452;59.418;17.962;2023-02-14T04:20:24;102927.91;;;3.02;75.32
70833;BME280;58452;59.418;17.962;2023-02-14T04:22:50;102926.94;;;3.06;75.40
70833;BME280;58452;59.418;17.962;2023-02-14T04:25:17;102928.06;;;2.97;75.56
70833;BME280;58452;59.418;17.962;2023-02-14T04:27:42;102928.56;;;3.10;74.93
70833;BME280;58452;59.418;17.962;2023-02-14T04:30:09;102917.38;;;3.14;74.62
70833;BME280;58452;59.418;17.962;2023-02-14T04:32:34;102928.31;;;3.19;74.34
70833;BME280;58452;59.418;17.962;2023-02-14T04:35:00;102929.84;;;3.24;74.43
70833;BME280;58452;59.418;17.962;2023-02-14T04:37:25;102949.03;;;3.07;74.46
70833;BME280;58452;59.418;17.962;2023-02-14T04:39:51;102948.00;;;3.14;74.37
70833;BME280;58452;59.418;17.962;2023-02-14T04:42:16;102926.00;;;3.10;74.39
70833;BME280;58452;59.418;17.962;2023-02-14T04:44:41;102940.53;;;3.08;74.56
70833;BME280;58452;59.418;17.962;2023-02-14T04:47:07;102937.06;;;3.09;74.65
70833;BME280;58452;59.418;17.962;2023-02-14T04:49:33;102940.34;;;3.14;73.91
70833;BME280;58452;59.418;17.962;2023-02-14T04:51:59;102943.84;;;3.10;74.00
70833;BME280;58452;59.418;17.962;2023-02-14T04:54:24;102945.44;;;3.14;73.95
70833;BME280;58452;59.418;17.962;2023-02-14T04:56:50;102943.00;;;3.09;73.82
70833;BME280;58452;59.418;17.962;2023-02-14T04:59:16;102941.38;;;3.08;73.89
70833;BME280;58452;59.418;17.962;2023-02-14T05:01:41;102935.75;;;2.94;74.80
70833;BME280;58452;59.418;17.962;2023-02-14T05:04:07;102934.59;;;3.06;73.98
70833;BME280;58452;59.418;17.962;2023-02-14T05:06:32;102933.56;;;3.13;74.29
70833;BME280;58452;59.418;17.962;2023-02-14T05:08:59;102937.25;;;3.03;74.33
70833;BME280;58452;59.418;17.962;2023-02-14T05:11:26;102944.03;;;3.04;74.91
70833;BME280;58452;59.418;17.962;2023-02-14T05:13:51;102937.22;;;3.04;75.00
70833;BME280;58452;59.418;17.962;2023-02-14T05:16:16;102941.28;;;3.11;74.22
70833;BME280;58452;59.418;17.962;2023-02-14T05:18:42;102938.59;;;3.16;74.60
70833;BME280;58452;59.418;17.962;2023-02-14T05:21:07;102940.53;;;3.08;74.40
70833;BME280;58452;59.418;17.962;2023-02-14T05:23:33;102936.31;;;3.05;74.93
70833;BME280;58452;59.418;17.962;2023-02-14T05:25:58;102932.97;;;3.03;74.36
70833;BME280;58452;59.418;17.962;2023-02-14T05:28:24;102927.78;;;3.06;75.02
70833;BME280;58452;59.418;17.962;2023-02-14T05:30:50;102932.88;;;3.08;74.97
70833;BME280;58452;59.418;17.962;2023-02-14T05:33:16;102942.31;;;3.04;74.35
70833;BME280;58452;59.418;17.962;2023-02-14T05:35:42;102943.94;;;3.07;74.50
70833;BME280;58452;59.418;17.962;2023-02-14T05:38:07;102944.69;;;3.10;74.33
70833;BME280;58452;59.418;17.962;2023-02-14T05:40:33;102955.75;;;3.11;74.00
70833;BME280;58452;59.418;17.962;2023-02-14T05:42:58;102945.56;;;3.09;73.87
70833;BME280;58452;59.418;17.962;2023-02-14T05:45:24;102943.09;;;3.06;74.06
70833;BME280;58452;59.418;17.962;2023-02-14T05:47:50;102948.59;;;2.91;74.90
70833;BME280;58452;59.418;17.962;2023-02-14T05:50:16;102949.50;;;2.88;75.48
70833;BME280;58452;59.418;17.962;2023-02-14T05:52:42;102950.94;;;2.99;75.19
70833;BME280;58452;59.418;17.962;2023-02-14T05:55:08;102957.66;;;3.01;74.78
70833;BME280;58452;59.418;17.962;2023-02-14T05:57:34;102950.94;;;2.99;74.48
70833;BME280;58452;59.418;17.962;2023-02-14T06:00:00;102958.03;;;2.87;75.29
70833;BME280;58452;59.418;17.962;2023-02-14T06:02:29;102942.22;;;2.75;75.58
70833;BME280;58452;59.418;17.962;2023-02-14T06:04:55;102948.50;;;2.60;76.21
70833;BME280;58452;59.418;17.962;2023-02-14T06:07:20;102954.91;;;2.76;76.07
70833;BME280;58452;59.418;17.962;2023-02-14T06:09:45;102959.78;;;2.85;76.13
70833;BME280;58452;59.418;17.962;2023-02-14T06:12:11;102958.84;;;2.89;75.36
70833;BME280;58452;59.418;17.962;2023-02-14T06:14:36;102957.16;;;2.88;75.48
70833;BME280;58452;59.418;17.962;2023-02-14T06:17:02;102955.28;;;2.95;76.01
70833;BME280;58452;59.418;17.962;2023-02-14T06:19:27;102953.00;;;2.84;75.90
70833;BME280;58452;59.418;17.962;2023-02-14T06:21:53;102949.41;;;2.93;75.68
70833;BME280;58452;59.418;17.962;2023-02-14T06:24:18;102966.22;;;3.00;75.81
70833;BME280;58452;59.418;17.962;2023-02-14T06:26:43;102968.59;;;3.06;75.93
70833;BME280;58452;59.418;17.962;2023-02-14T06:29:09;102966.03;;;3.08;75.83
70833;BME280;58452;59.418;17.962;2023-02-14T06:31:34;102966.81;;;3.10;75.33
70833;BME280;58452;59.418;17.962;2023-02-14T06:34:00;102972.78;;;3.09;75.91
70833;BME280;58452;59.418;17.962;2023-02-14T06:36:25;102964.19;;;3.13;75.72
70833;BME280;58452;59.418;17.962;2023-02-14T06:38:51;102969.38;;;3.10;75.27
70833;BME280;58452;59.418;17.962;2023-02-14T06:41:17;102965.03;;;3.13;75.52
70833;BME280;58452;59.418;17.962;2023-02-14T06:43:44;102970.09;;;3.15;74.96
70833;BME280;58452;59.418;17.962;2023-02-14T06:46:10;102978.50;;;3.18;75.57
70833;BME280;58452;59.418;17.962;2023-02-14T06:48:36;102972.56;;;3.18;75.01
70833;BME280;58452;59.418;17.962;2023-02-14T06:51:02;102971.69;;;3.19;75.16
70833;BME280;58452;59.418;17.962;2023-02-14T06:53:27;102972.09;;;3.02;75.46
70833;BME280;58452;59.418;17.962;2023-02-14T06:55:53;102974.75;;;2.97;75.78
70833;BME280;58452;59.418;17.962;2023-02-14T06:58:19;102971.13;;;3.08;76.25
70833;BME280;58452;59.418;17.962;2023-02-14T07:00:45;102978.59;;;3.15;75.63
70833;BME280;58452;59.418;17.962;2023-02-14T07:03:11;102986.44;;;3.08;75.65
70833;BME280;58452;59.418;17.962;2023-02-14T07:05:37;102989.59;;;3.16;75.86
70833;BME280;58452;59.418;17.962;2023-02-14T07:08:02;102994.56;;;3.22;75.68
70833;BME280;58452;59.418;17.962;2023-02-14T07:10:28;102988.63;;;3.21;75.93
70833;BME280;58452;59.418;17.962;2023-02-14T07:12:53;102991.22;;;3.20;75.76
70833;BME280;58452;59.418;17.962;2023-02-14T07:15:19;102996.13;;;3.27;75.75
70833;BME280;58452;59.418;17.962;2023-02-14T07:17:44;102999.34;;;3.34;75.39
70833;BME280;58452;59.418;17.962;2023-02-14T07:20:11;102995.69;;;3.12;76.64
70833;BME280;58452;59.418;17.962;2023-02-14T07:22:37;103000.59;;;2.85;77.34
70833;BME280;58452;59.418;17.962;2023-02-14T07:25:04;103000.66;;;2.82;78.20
70833;BME280;58452;59.418;17.962;2023-02-14T07:27:30;102991.84;;;2.95;78.35
70833;BME280;58452;59.418;17.962;2023-02-14T07:29:56;102999.91;;;3.13;77.85
70833;BME280;58452;59.418;17.962;2023-02-14T07:32:21;102997.88;;;3.25;76.98
70833;BME280;58452;59.418;17.962;2023-02-14T07:34:48;102994.25;;;3.34;76.64
70833;BME280;58452;59.418;17.962;2023-02-14T07:37:13;102994.94;;;3.40;76.29
70833;BME280;58452;59.418;17.962;2023-02-14T07:39:41;102986.53;;;3.37;75.48
70833;BME280;58452;59.418;17.962;2023-02-14T07:42:06;102986.56;;;3.02;76.56
70833;BME280;58452;59.418;17.962;2023-02-14T07:44:32;102993.16;;;3.12;77.23
70833;BME280;58452;59.418;17.962;2023-02-14T07:46:58;102993.34;;;3.03;77.02
70833;BME280;58452;59.418;17.962;2023-02-14T07:49:23;102994.78;;;3.13;76.88
70833;BME280;58452;59.418;17.962;2023-02-14T07:51:48;102987.06;;;2.82;77.55
70833;BME280;58452;59.418;17.962;2023-02-14T07:54:14;102997.22;;;2.83;78.13
70833;BME280;58452;59.418;17.962;2023-02-14T07:56:39;103006.72;;;2.77;78.32
70833;BME280;58452;59.418;17.962;2023-02-14T07:59:05;103011.06;;;2.73;78.85
70833;BME280;58452;59.418;17.962;2023-02-14T08:01:30;103003.34;;;2.76;78.09
70833;BME280;58452;59.418;17.962;2023-02-14T08:03:56;103011.00;;;2.76;77.96
70833;BME280;58452;59.418;17.962;2023-02-14T08:06:21;103015.97;;;2.82;78.51
70833;BME280;58452;59.418;17.962;2023-02-14T08:08:47;103003.09;;;2.87;77.01
70833;BME280;58452;59.418;17.962;2023-02-14T08:11:13;103001.34;;;2.89;77.31
70833;BME280;58452;59.418;17.962;2023-02-14T08:14:02;103006.72;;;2.77;78.21
70833;BME280;58452;59.418;17.962;2023-02-14T08:16:28;103010.13;;;2.77;78.55
70833;BME280;58452;59.418;17.962;2023-02-14T08:18:53;103003.84;;;2.90;77.92
70833;BME280;58452;59.418;17.962;2023-02-14T08:21:19;103008.75;;;3.00;78.30
70833;BME280;58452;59.418;17.962;2023-02-14T08:23:45;103001.59;;;3.14;77.62
70833;BME280;58452;59.418;17.962;2023-02-14T08:26:10;102998.66;;;3.29;76.33
70833;BME280;58452;59.418;17.962;2023-02-14T08:28:36;102998.66;;;3.27;76.68
70833;BME280;58452;59.418;17.962;2023-02-14T08:31:02;102994.00;;;3.11;76.70
70833;BME280;58452;59.418;17.962;2023-02-14T08:33:28;102997.78;;;2.96;77.63
70833;BME280;58452;59.418;17.962;2023-02-14T08:35:54;102999.41;;;2.99;77.42
70833;BME280;58452;59.418;17.962;2023-02-14T08:38:19;102989.00;;;3.08;77.48
70833;BME280;58452;59.418;17.962;2023-02-14T08:40:45;102984.88;;;3.02;77.29
70833;BME280;58452;59.418;17.962;2023-02-14T08:43:11;102998.09;;;3.18;78.17
70833;BME280;58452;59.418;17.962;2023-02-14T08:45:37;102991.00;;;3.29;77.24
70833;BME280;58452;59.418;17.962;2023-02-14T08:48:08;102996.13;;;3.27;76.97
70833;BME280;58452;59.418;17.962;2023-02-14T08:50:34;102995.34;;;3.25;76.97
70833;BME280;58452;59.418;17.962;2023-02-14T08:53:00;103001.50;;;3.17;77.14
70833;BME280;58452;59.418;17.962;2023-02-14T08:55:25;103002.25;;;3.20;76.90
70833;BME280;58452;59.418;17.962;2023-02-14T08:57:54;103005.63;;;3.22;76.50
70833;BME280;58452;59.418;17.962;2023-02-14T09:00:20;103005.63;;;3.22;76.27
70833;BME280;58452;59.418;17.962;2023-02-14T09:02:49;103007.91;;;3.33;76.98
70833;BME280;58452;59.418;17.962;2023-02-14T09:05:15;103013.56;;;3.12;77.05
70833;BME280;58452;59.418;17.962;2023-02-14T09:07:41;103011.25;;;3.01;77.90
70833;BME280;58452;59.418;17.962;2023-02-14T09:10:07;103012.00;;;3.05;77.54
70833;BME280;58452;59.418;17.962;2023-02-14T09:12:32;103013.66;;;3.07;77.00
70833;BME280;58452;59.418;17.962;2023-02-14T09:14:58;103015.38;;;3.07;76.95
70833;BME280;58452;59.418;17.962;2023-02-14T09:17:23;103004.34;;;3.05;77.24
70833;BME280;58452;59.418;17.962;2023-02-14T09:19:49;103004.16;;;3.12;77.11
70833;BME280;58452;59.418;17.962;2023-02-14T09:22:14;103004.88;;;3.19;77.02
70833;BME280;58452;59.418;17.962;2023-02-14T09:24:40;103000.81;;;3.10;77.26
70833;BME280;58452;59.418;17.962;2023-02-14T09:27:06;102998.09;;;3.16;77.06
70833;BME280;58452;59.418;17.962;2023-02-14T09:29:32;102995.69;;;3.12;76.80
70833;BME280;58452;59.418;17.962;2023-02-14T09:31:59;103000.53;;;3.21;76.81
70833;BME280;58452;59.418;17.962;2023-02-14T09:34:26;103005.44;;;3.30;76.65
70833;BME280;58452;59.418;17.962;2023-02-14T09:37:11;102999.16;;;3.41;76.54
70833;BME280;58452;59.418;17.962;2023-02-14T09:39:56;103001.19;;;3.61;76.11
70833;BME280;58452;59.418;17.962;2023-02-14T09:45:08;102994.94;;;3.71;74.57
70833;BME280;58452;59.418;17.962;2023-02-14T09:50:32;102998.03;;;3.82;74.83
70833;BME280;58452;59.418;17.962;2023-02-14T09:53:06;102995.31;;;3.88;75.20
70833;BME280;58452;59.418;17.962;2023-02-14T09:58:35;102994.09;;;4.02;74.29
70833;BME280;58452;59.418;17.962;2023-02-14T10:03:39;102989.38;;;4.17;73.58
70833;BME280;58452;59.418;17.962;2023-02-14T10:11:42;102979.44;;;4.36;73.66
70833;BME280;58452;59.418;17.962;2023-02-14T10:14:10;102981.09;;;4.37;73.38
70833;BME280;58452;59.418;17.962;2023-02-14T10:16:42;102980.00;;;4.44;73.55
70833;BME280;58452;59.418;17.962;2023-02-14T10:19:22;102977.19;;;4.53;73.91
70833;BME280;58452;59.418;17.962;2023-02-14T10:21:53;102980.25;;;4.64;73.61
70833;BME280;58452;59.418;17.962;2023-02-14T10:27:33;102976.13;;;4.86;71.67
70833;BME280;58452;59.418;17.962;2023-02-14T10:29:59;102979.50;;;4.87;72.57
70833;BME280;58452;59.418;17.962;2023-02-14T10:32:58;102979.25;;;4.95;71.82
70833;BME280;58452;59.418;17.962;2023-02-14T10:35:34;102970.78;;;4.92;71.83
70833;BME280;58452;59.418;17.962;2023-02-14T10:41:23;102977.38;;;5.00;71.99
70833;BME280;58452;59.418;17.962;2023-02-14T10:44:21;102978.56;;;5.14;70.95
70833;BME280;58452;59.418;17.962;2023-02-14T10:47:29;102975.19;;;5.14;70.42
70833;BME280;58452;59.418;17.962;2023-02-14T10:50:03;102973.41;;;5.16;71.04
70833;BME280;58452;59.418;17.962;2023-02-14T10:52:51;102976.19;;;5.10;69.94
70833;BME280;58452;59.418;17.962;2023-02-14T10:55:32;102965.28;;;5.05;70.54
70833;BME280;58452;59.418;17.962;2023-02-14T10:58:03;102966.88;;;5.07;70.53
70833;BME280;58452;59.418;17.962;2023-02-14T11:00:34;102970.06;;;5.14;70.39
70833;BME280;58452;59.418;17.962;2023-02-14T11:03:06;102964.53;;;5.26;70.85
70833;BME280;58452;59.418;17.962;2023-02-14T11:05:35;102967.97;;;5.25;70.03
70833;BME280;58452;59.418;17.962;2023-02-14T11:08:13;102965.38;;;5.26;69.69
70833;BME280;58452;59.418;17.962;2023-02-14T11:10:39;102967.78;;;5.31;69.72
70833;BME280;58452;59.418;17.962;2023-02-14T11:13:29;102964.22;;;5.35;69.80
70833;BME280;58452;59.418;17.962;2023-02-14T11:15:58;102964.03;;;5.39;68.98
70833;BME280;58452;59.418;17.962;2023-02-14T11:18:25;102954.75;;;5.37;68.21
70833;BME280;58452;59.418;17.962;2023-02-14T11:23:45;102954.53;;;5.43;69.75
70833;BME280;58452;59.418;17.962;2023-02-14T11:26:32;102950.78;;;5.53;68.19
70833;BME280;58452;59.418;17.962;2023-02-14T11:29:00;102949.78;;;5.57;68.49
70833;BME280;58452;59.418;17.962;2023-02-14T11:31:38;102944.41;;;5.63;68.17
70833;BME280;58452;59.418;17.962;2023-02-14T11:34:15;102949.31;;;5.69;67.71
70833;BME280;58452;59.418;17.962;2023-02-14T11:36:45;102943.97;;;5.75;67.36
70833;BME280;58452;59.418;17.962;2023-02-14T11:41:53;102941.78;;;5.89;67.34
70833;BME280;58452;59.418;17.962;2023-02-14T11:44:25;102935.81;;;5.89;66.79
70833;BME280;58452;59.418;17.962;2023-02-14T11:46:52;102936.53;;;5.93;66.89
70833;BME280;58452;59.418;17.962;2023-02-14T11:49:32;102934.72;;;5.95;66.81
70833;BME280;58452;59.418;17.962;2023-02-14T11:52:09;102931.06;;;6.02;66.61
70833;BME280;58452;59.418;17.962;2023-02-14T11:54:38;102926.03;;;5.99;66.16
70833;BME280;58452;59.418;17.962;2023-02-14T11:57:26;102928.38;;;6.05;66.46
70833;BME280;58452;59.418;17.962;2023-02-14T11:59:56;102922.03;;;6.13;65.48
70833;BME280;58452;59.418;17.962;2023-02-14T12:02:37;102914.25;;;6.16;65.88
70833;BME280;58452;59.418;17.962;2023-02-14T12:05:13;102914.47;;;6.10;65.77
70833;BME280;58452;59.418;17.962;2023-02-14T12:07:42;102909.72;;;6.23;65.82
70833;BME280;58452;59.418;17.962;2023-02-14T12:13:00;102914.13;;;6.41;64.81
70833;BME280;58452;59.418;17.962;2023-02-14T12:23:42;102907.97;;;6.45;64.86
70833;BME280;58452;59.418;17.962;2023-02-14T12:26:30;102910.28;;;6.51;64.56
70833;BME280;58452;59.418;17.962;2023-02-14T12:32:17;102900.91;;;6.50;64.11
70833;BME280;58452;59.418;17.962;2023-02-14T12:34:44;102898.09;;;6.56;64.24
70833;BME280;58452;59.418;17.962;2023-02-14T12:37:15;102892.22;;;6.74;64.72
70833;BME280;58452;59.418;17.962;2023-02-14T12:42:58;102889.72;;;6.93;63.23
70833;BME280;58452;59.418;17.962;2023-02-14T12:45:58;102882.72;;;6.97;63.20
70833;BME280;58452;59.418;17.962;2023-02-14T12:48:46;102887.84;;;6.97;62.53
70833;BME280;58452;59.418;17.962;2023-02-14T12:59:32;102876.78;;;6.95;62.96
70833;BME280;58452;59.418;17.962;2023-02-14T13:10:52;102864.88;;;7.12;62.77
70833;BME280;58452;59.418;17.962;2023-02-14T13:13:30;102862.69;;;7.23;61.92
70833;BME280;58452;59.418;17.962;2023-02-14T13:21:16;102865.88;;;7.10;61.91
70833;BME280;58452;59.418;17.962;2023-02-14T13:23:47;102873.84;;;7.04;62.12
70833;BME280;58452;59.418;17.962;2023-02-14T13:26:17;102866.75;;;7.09;62.49
70833;BME280;58452;59.418;17.962;2023-02-14T13:28:50;102870.25;;;7.08;61.99
70833;BME280;58452;59.418;17.962;2023-02-14T13:31:18;102871.56;;;7.16;62.41
70833;BME280;58452;59.418;17.962;2023-02-14T13:33:51;102877.03;;;7.09;62.31
70833;BME280;58452;59.418;17.962;2023-02-14T13:36:18;102869.66;;;7.01;62.44
70833;BME280;58452;59.418;17.962;2023-02-14T13:38:48;102871.16;;;6.86;62.84
70833;BME280;58452;59.418;17.962;2023-02-14T13:41:16;102874.50;;;6.88;62.93
70833;BME280;58452;59.418;17.962;2023-02-14T13:43:54;102872.44;;;6.97;62.80
70833;BME280;58452;59.418;17.962;2023-02-14T13:49:24;102863.56;;;7.04;62.55
70833;BME280;58452;59.418;17.962;2023-02-14T13:51:53;102858.50;;;7.02;61.98
70833;BME280;58452;59.418;17.962;2023-02-14T13:54:42;102861.91;;;7.03;62.87
70833;BME280;58452;59.418;17.962;2023-02-14T13:57:30;102865.66;;;7.14;62.25
70833;BME280;58452;59.418;17.962;2023-02-14T14:10:58;102851.63;;;7.03;62.01
70833;BME280;58452;59.418;17.962;2023-02-14T14:18:52;102856.16;;;6.77;62.76
70833;BME280;58452;59.418;17.962;2023-02-14T14:21:30;102844.88;;;6.81;62.91
70833;BME280;58452;59.418;17.962;2023-02-14T14:24:16;102844.06;;;6.79;63.05
70833;BME280;58452;59.418;17.962;2023-02-14T14:26:44;102842.88;;;6.68;63.22
70833;BME280;58452;59.418;17.962;2023-02-14T14:29:29;102841.84;;;6.52;63.58
70833;BME280;58452;59.418;17.962;2023-02-14T14:31:56;102844.88;;;6.41;63.79
70833;BME280;58452;59.418;17.962;2023-02-14T14:34:25;102838.13;;;6.38;63.94
70833;BME280;58452;59.418;17.962;2023-02-14T14:37:01;102839.88;;;6.38;64.19
70833;BME280;58452;59.418;17.962;2023-02-14T14:39:29;102845.19;;;6.33;64.37
70833;BME280;58452;59.418;17.962;2023-02-14T14:42:04;102840.88;;;6.34;64.24
70833;BME280;58452;59.418;17.962;2023-02-14T14:44:32;102840.88;;;6.34;64.44
70833;BME280;58452;59.418;17.962;2023-02-14T14:46:58;102824.47;;;6.38;64.33
70833;BME280;58452;59.418;17.962;2023-02-14T14:49:25;102821.63;;;6.24;64.16
70833;BME280;58452;59.418;17.962;2023-02-14T14:51:50;102822.91;;;6.14;64.89
70833;BME280;58452;59.418;17.962;2023-02-14T14:54:19;102816.75;;;6.18;64.95
70833;BME280;58452;59.418;17.962;2023-02-14T14:56:53;102817.66;;;6.17;65.42
70833;BME280;58452;59.418;17.962;2023-02-14T15:01:47;102818.47;;;6.17;64.92
70833;BME280;58452;59.418;17.962;2023-02-14T15:06:42;102815.78;;;6.00;65.60
70833;BME280;58452;59.418;17.962;2023-02-14T15:09:14;102812.50;;;5.97;65.71
70833;BME280;58452;59.418;17.962;2023-02-14T15:11:40;102815.06;;;5.97;65.50
70833;BME280;58452;59.418;17.962;2023-02-14T15:14:28;102819.66;;;5.88;65.80
70833;BME280;58452;59.418;17.962;2023-02-14T15:16:59;102821.03;;;5.97;66.20
70833;BME280;58452;59.418;17.962;2023-02-14T15:22:07;102820.44;;;5.91;65.90
70833;BME280;58452;59.418;17.962;2023-02-14T15:24:41;102810.47;;;6.05;65.88
70833;BME280;58452;59.418;17.962;2023-02-14T15:27:13;102807.53;;;6.14;65.81
70833;BME280;58452;59.418;17.962;2023-02-14T15:29:39;102811.09;;;6.10;65.23